Ashton, Missouri
Current Conditions -  °F | °C
As of 9:55 AM on Sunday 21 Dec 2014 (Local Time) from KEOK Reporting Station
Overcast Overcast  
Wind Chill: 36°   Ceiling: 2200
Heat Index: 41°   Visibility: 10mi
Dew Point: 36°   Wind: 8mph
Humidity: 81%   Direction: 160°SSE
Pressure: 30.09"   Gusts: NA
Location:  40.513°N, 91.8882°W
Report Text: KEOK 211555Z AUTO 16007KT 10SM OVC022 05/02 A3009 RMK AO2
Loading
Personal Weather Stations






























Interactive Weather Map New forecast layout! Learn more

10-Day Weather Forecast

Advertisements
Track Severe Weather on mobile